sensor_id;sensor_type;location;lat;lon;timestamp;P1;durP1;ratioP1;P2;durP2;ratioP2
53411;SDS011;39307;52.870;13.660;2022-10-29T00:00:38;13.18;;;5.00;;
53411;SDS011;39307;52.870;13.660;2022-10-29T00:03:05;15.90;;;4.68;;
53411;SDS011;39307;52.870;13.660;2022-10-29T00:05:31;17.45;;;5.22;;
53411;SDS011;39307;52.870;13.660;2022-10-29T00:07:58;15.90;;;5.32;;
53411;SDS011;39307;52.870;13.660;2022-10-29T00:10:24;17.92;;;5.43;;
53411;SDS011;39307;52.870;13.660;2022-10-29T00:12:51;16.35;;;5.95;;
53411;SDS011;39307;52.870;13.660;2022-10-29T00:15:17;14.18;;;5.47;;
53411;SDS011;39307;52.870;13.660;2022-10-29T00:17:43;16.43;;;6.53;;
53411;SDS011;39307;52.870;13.660;2022-10-29T00:20:09;18.37;;;5.80;;
53411;SDS011;39307;52.870;13.660;2022-10-29T00:22:36;17.15;;;6.03;;
53411;SDS011;39307;52.870;13.660;2022-10-29T00:25:02;15.15;;;4.68;;
53411;SDS011;39307;52.870;13.660;2022-10-29T00:27:28;14.20;;;5.07;;
53411;SDS011;39307;52.870;13.660;2022-10-29T00:29:55;16.13;;;6.15;;
53411;SDS011;39307;52.870;13.660;2022-10-29T00:32:21;15.30;;;5.60;;
53411;SDS011;39307;52.870;13.660;2022-10-29T00:34:47;16.02;;;5.85;;
53411;SDS011;39307;52.870;13.660;2022-10-29T00:37:13;17.08;;;5.55;;
53411;SDS011;39307;52.870;13.660;2022-10-29T00:39:39;16.40;;;5.85;;
53411;SDS011;39307;52.870;13.660;2022-10-29T00:42:11;16.63;;;5.00;;
53411;SDS011;39307;52.870;13.660;2022-10-29T00:44:40;19.92;;;6.13;;
53411;SDS011;39307;52.870;13.660;2022-10-29T00:47:16;16.55;;;5.93;;
53411;SDS011;39307;52.870;13.660;2022-10-29T00:49:55;16.33;;;5.03;;
53411;SDS011;39307;52.870;13.660;2022-10-29T00:52:28;17.00;;;6.00;;
53411;SDS011;39307;52.870;13.660;2022-10-29T00:54:57;15.03;;;5.07;;
53411;SDS011;39307;52.870;13.660;2022-10-29T00:57:28;15.10;;;5.38;;
53411;SDS011;39307;52.870;13.660;2022-10-29T01:00:02;15.48;;;5.90;;
53411;SDS011;39307;52.870;13.660;2022-10-29T01:02:29;19.52;;;5.55;;
53411;SDS011;39307;52.870;13.660;2022-10-29T01:04:57;19.37;;;5.90;;
53411;SDS011;39307;52.870;13.660;2022-10-29T01:07:25;19.20;;;5.95;;
53411;SDS011;39307;52.870;13.660;2022-10-29T01:09:51;16.75;;;5.80;;
53411;SDS011;39307;52.870;13.660;2022-10-29T01:14:58;15.02;;;5.72;;
53411;SDS011;39307;52.870;13.660;2022-10-29T01:17:50;18.73;;;6.18;;
53411;SDS011;39307;52.870;13.660;2022-10-29T01:21:25;20.30;;;6.43;;
53411;SDS011;39307;52.870;13.660;2022-10-29T01:38:40;17.35;;;6.22;;
53411;SDS011;39307;52.870;13.660;2022-10-29T01:41:29;16.35;;;6.30;;
53411;SDS011;39307;52.870;13.660;2022-10-29T01:46:59;21.38;;;6.35;;
53411;SDS011;39307;52.870;13.660;2022-10-29T01:49:28;14.80;;;6.40;;
53411;SDS011;39307;52.870;13.660;2022-10-29T01:52:08;15.82;;;5.97;;
53411;SDS011;39307;52.870;13.660;2022-10-29T01:54:41;16.50;;;6.72;;
53411;SDS011;39307;52.870;13.660;2022-10-29T01:59:56;15.85;;;6.20;;
53411;SDS011;39307;52.870;13.660;2022-10-29T02:02:44;17.10;;;5.97;;
53411;SDS011;39307;52.870;13.660;2022-10-29T02:08:18;15.23;;;6.13;;
53411;SDS011;39307;52.870;13.660;2022-10-29T02:11:06;17.50;;;6.47;;
53411;SDS011;39307;52.870;13.660;2022-10-29T02:13:51;19.42;;;6.25;;
53411;SDS011;39307;52.870;13.660;2022-10-29T02:16:25;16.77;;;6.35;;
53411;SDS011;39307;52.870;13.660;2022-10-29T02:18:53;16.23;;;6.35;;
53411;SDS011;39307;52.870;13.660;2022-10-29T02:21:20;20.73;;;6.70;;
53411;SDS011;39307;52.870;13.660;2022-10-29T02:23:46;15.13;;;6.63;;
53411;SDS011;39307;52.870;13.660;2022-10-29T02:26:12;16.08;;;6.03;;
53411;SDS011;39307;52.870;13.660;2022-10-29T02:28:38;19.80;;;5.93;;
53411;SDS011;39307;52.870;13.660;2022-10-29T02:31:04;15.35;;;6.05;;
53411;SDS011;39307;52.870;13.660;2022-10-29T02:33:31;14.85;;;6.45;;
53411;SDS011;39307;52.870;13.660;2022-10-29T02:35:57;16.17;;;6.30;;
53411;SDS011;39307;52.870;13.660;2022-10-29T02:38:23;14.37;;;6.43;;
53411;SDS011;39307;52.870;13.660;2022-10-29T02:40:49;18.13;;;6.65;;
53411;SDS011;39307;52.870;13.660;2022-10-29T02:43:16;20.83;;;7.30;;
53411;SDS011;39307;52.870;13.660;2022-10-29T02:45:42;21.13;;;6.90;;
53411;SDS011;39307;52.870;13.660;2022-10-29T02:48:08;15.38;;;6.70;;
53411;SDS011;39307;52.870;13.660;2022-10-29T02:50:34;20.38;;;6.78;;
53411;SDS011;39307;52.870;13.660;2022-10-29T02:53:00;16.33;;;6.90;;
53411;SDS011;39307;52.870;13.660;2022-10-29T02:55:27;18.33;;;7.18;;
53411;SDS011;39307;52.870;13.660;2022-10-29T02:57:53;17.38;;;6.72;;
53411;SDS011;39307;52.870;13.660;2022-10-29T03:00:19;19.60;;;7.50;;
53411;SDS011;39307;52.870;13.660;2022-10-29T03:02:45;22.17;;;7.25;;
53411;SDS011;39307;52.870;13.660;2022-10-29T03:05:16;24.70;;;7.43;;
53411;SDS011;39307;52.870;13.660;2022-10-29T03:07:42;16.30;;;6.57;;
53411;SDS011;39307;52.870;13.660;2022-10-29T03:10:08;16.40;;;6.82;;
53411;SDS011;39307;52.870;13.660;2022-10-29T03:12:35;18.35;;;6.70;;
53411;SDS011;39307;52.870;13.660;2022-10-29T03:15:01;21.67;;;6.43;;
53411;SDS011;39307;52.870;13.660;2022-10-29T03:17:27;17.20;;;6.35;;
53411;SDS011;39307;52.870;13.660;2022-10-29T03:19:53;19.05;;;6.32;;
53411;SDS011;39307;52.870;13.660;2022-10-29T03:22:20;19.98;;;7.47;;
53411;SDS011;39307;52.870;13.660;2022-10-29T03:24:46;19.17;;;7.00;;
53411;SDS011;39307;52.870;13.660;2022-10-29T03:27:12;17.95;;;6.65;;
53411;SDS011;39307;52.870;13.660;2022-10-29T03:29:38;23.88;;;7.25;;
53411;SDS011;39307;52.870;13.660;2022-10-29T03:32:04;22.27;;;7.28;;
53411;SDS011;39307;52.870;13.660;2022-10-29T03:34:30;23.65;;;7.22;;
53411;SDS011;39307;52.870;13.660;2022-10-29T03:36:57;21.13;;;7.38;;
53411;SDS011;39307;52.870;13.660;2022-10-29T03:39:23;19.50;;;6.63;;
53411;SDS011;39307;52.870;13.660;2022-10-29T03:41:49;15.48;;;6.72;;
53411;SDS011;39307;52.870;13.660;2022-10-29T03:44:15;15.90;;;7.47;;
53411;SDS011;39307;52.870;13.660;2022-10-29T03:46:41;19.63;;;7.13;;
53411;SDS011;39307;52.870;13.660;2022-10-29T03:49:08;16.00;;;6.50;;
53411;SDS011;39307;52.870;13.660;2022-10-29T03:51:34;16.77;;;6.50;;
53411;SDS011;39307;52.870;13.660;2022-10-29T03:54:00;19.50;;;7.20;;
53411;SDS011;39307;52.870;13.660;2022-10-29T03:56:26;16.50;;;7.00;;
53411;SDS011;39307;52.870;13.660;2022-10-29T03:58:52;19.35;;;7.35;;
53411;SDS011;39307;52.870;13.660;2022-10-29T04:01:18;21.83;;;7.75;;
53411;SDS011;39307;52.870;13.660;2022-10-29T04:03:45;21.70;;;7.82;;
53411;SDS011;39307;52.870;13.660;2022-10-29T04:06:12;15.90;;;6.82;;
53411;SDS011;39307;52.870;13.660;2022-10-29T04:08:39;19.30;;;8.02;;
53411;SDS011;39307;52.870;13.660;2022-10-29T04:11:07;18.27;;;7.40;;
53411;SDS011;39307;52.870;13.660;2022-10-29T04:13:37;19.50;;;7.30;;
53411;SDS011;39307;52.870;13.660;2022-10-29T04:16:03;15.45;;;7.35;;
53411;SDS011;39307;52.870;13.660;2022-10-29T04:18:30;15.48;;;7.25;;
53411;SDS011;39307;52.870;13.660;2022-10-29T04:20:59;17.58;;;7.63;;
53411;SDS011;39307;52.870;13.660;2022-10-29T04:23:27;19.02;;;7.88;;
53411;SDS011;39307;52.870;13.660;2022-10-29T04:25:56;18.63;;;7.60;;
53411;SDS011;39307;52.870;13.660;2022-10-29T04:28:24;18.45;;;7.78;;
53411;SDS011;39307;52.870;13.660;2022-10-29T04:30:50;18.15;;;7.55;;
53411;SDS011;39307;52.870;13.660;2022-10-29T04:33:16;19.38;;;8.02;;
53411;SDS011;39307;52.870;13.660;2022-10-29T04:35:43;18.75;;;7.43;;
53411;SDS011;39307;52.870;13.660;2022-10-29T04:38:16;19.03;;;7.57;;
53411;SDS011;39307;52.870;13.660;2022-10-29T04:40:42;20.07;;;8.10;;
53411;SDS011;39307;52.870;13.660;2022-10-29T04:43:08;19.67;;;8.02;;
53411;SDS011;39307;52.870;13.660;2022-10-29T04:45:34;18.75;;;7.28;;
53411;SDS011;39307;52.870;13.660;2022-10-29T04:48:04;20.45;;;7.38;;
53411;SDS011;39307;52.870;13.660;2022-10-29T04:50:31;18.43;;;7.93;;
53411;SDS011;39307;52.870;13.660;2022-10-29T04:53:01;16.02;;;7.75;;
53411;SDS011;39307;52.870;13.660;2022-10-29T04:55:29;17.80;;;7.85;;
53411;SDS011;39307;52.870;13.660;2022-10-29T04:57:56;20.45;;;8.60;;
53411;SDS011;39307;52.870;13.660;2022-10-29T05:00:22;18.43;;;7.77;;
53411;SDS011;39307;52.870;13.660;2022-10-29T05:02:49;18.90;;;8.30;;
53411;SDS011;39307;52.870;13.660;2022-10-29T05:05:17;22.33;;;8.30;;
53411;SDS011;39307;52.870;13.660;2022-10-29T05:07:44;20.05;;;8.63;;
53411;SDS011;39307;52.870;13.660;2022-10-29T05:10:11;17.77;;;8.40;;
53411;SDS011;39307;52.870;13.660;2022-10-29T05:12:37;19.95;;;8.82;;
53411;SDS011;39307;52.870;13.660;2022-10-29T05:15:04;20.13;;;8.98;;
53411;SDS011;39307;52.870;13.660;2022-10-29T05:17:30;19.35;;;8.65;;
53411;SDS011;39307;52.870;13.660;2022-10-29T05:20:01;22.48;;;9.10;;
53411;SDS011;39307;52.870;13.660;2022-10-29T05:22:28;23.27;;;9.68;;
53411;SDS011;39307;52.870;13.660;2022-10-29T05:24:54;21.60;;;8.98;;
53411;SDS011;39307;52.870;13.660;2022-10-29T05:27:20;24.60;;;10.02;;
53411;SDS011;39307;52.870;13.660;2022-10-29T05:29:46;21.13;;;9.52;;
53411;SDS011;39307;52.870;13.660;2022-10-29T05:32:12;20.75;;;8.52;;
53411;SDS011;39307;52.870;13.660;2022-10-29T05:34:38;17.75;;;8.93;;
53411;SDS011;39307;52.870;13.660;2022-10-29T05:37:05;19.60;;;8.40;;
53411;SDS011;39307;52.870;13.660;2022-10-29T05:39:31;20.13;;;9.30;;
53411;SDS011;39307;52.870;13.660;2022-10-29T05:41:57;22.30;;;8.90;;
53411;SDS011;39307;52.870;13.660;2022-10-29T05:44:23;23.17;;;8.75;;
53411;SDS011;39307;52.870;13.660;2022-10-29T05:46:49;20.13;;;9.27;;
53411;SDS011;39307;52.870;13.660;2022-10-29T05:49:15;21.20;;;9.73;;
53411;SDS011;39307;52.870;13.660;2022-10-29T05:51:42;22.15;;;8.80;;
53411;SDS011;39307;52.870;13.660;2022-10-29T05:54:08;19.10;;;8.50;;
53411;SDS011;39307;52.870;13.660;2022-10-29T05:56:34;24.60;;;9.82;;
53411;SDS011;39307;52.870;13.660;2022-10-29T05:59:00;23.52;;;8.90;;
53411;SDS011;39307;52.870;13.660;2022-10-29T06:01:26;20.88;;;9.30;;
53411;SDS011;39307;52.870;13.660;2022-10-29T06:03:53;22.55;;;8.98;;
53411;SDS011;39307;52.870;13.660;2022-10-29T06:06:19;21.53;;;9.13;;
53411;SDS011;39307;52.870;13.660;2022-10-29T06:08:45;17.83;;;9.13;;
53411;SDS011;39307;52.870;13.660;2022-10-29T06:11:11;21.75;;;9.02;;
53411;SDS011;39307;52.870;13.660;2022-10-29T06:13:37;20.58;;;9.43;;
53411;SDS011;39307;52.870;13.660;2022-10-29T06:16:04;24.48;;;9.82;;
53411;SDS011;39307;52.870;13.660;2022-10-29T06:18:30;20.40;;;9.27;;
53411;SDS011;39307;52.870;13.660;2022-10-29T06:20:57;23.08;;;9.35;;
53411;SDS011;39307;52.870;13.660;2022-10-29T06:23:23;23.70;;;9.93;;
53411;SDS011;39307;52.870;13.660;2022-10-29T06:25:50;22.50;;;10.25;;
53411;SDS011;39307;52.870;13.660;2022-10-29T06:28:16;23.20;;;9.60;;
53411;SDS011;39307;52.870;13.660;2022-10-29T06:30:44;22.45;;;9.68;;
53411;SDS011;39307;52.870;13.660;2022-10-29T06:33:18;21.27;;;9.05;;
53411;SDS011;39307;52.870;13.660;2022-10-29T06:35:45;21.08;;;10.50;;
53411;SDS011;39307;52.870;13.660;2022-10-29T06:38:12;27.15;;;10.50;;
53411;SDS011;39307;52.870;13.660;2022-10-29T06:40:39;24.07;;;9.97;;
53411;SDS011;39307;52.870;13.660;2022-10-29T06:43:06;24.00;;;9.57;;
53411;SDS011;39307;52.870;13.660;2022-10-29T06:45:35;23.08;;;9.57;;
53411;SDS011;39307;52.870;13.660;2022-10-29T06:48:02;23.58;;;10.15;;
53411;SDS011;39307;52.870;13.660;2022-10-29T06:50:28;22.42;;;9.90;;
53411;SDS011;39307;52.870;13.660;2022-10-29T06:52:58;23.40;;;10.00;;
53411;SDS011;39307;52.870;13.660;2022-10-29T06:55:26;21.65;;;9.50;;
53411;SDS011;39307;52.870;13.660;2022-10-29T06:58:00;18.70;;;9.95;;
53411;SDS011;39307;52.870;13.660;2022-10-29T07:00:27;20.80;;;10.23;;
53411;SDS011;39307;52.870;13.660;2022-10-29T07:02:54;22.45;;;9.90;;
53411;SDS011;39307;52.870;13.660;2022-10-29T07:05:20;21.70;;;9.93;;
53411;SDS011;39307;52.870;13.660;2022-10-29T07:07:47;21.25;;;10.18;;
53411;SDS011;39307;52.870;13.660;2022-10-29T07:10:13;25.08;;;10.13;;
53411;SDS011;39307;52.870;13.660;2022-10-29T07:12:40;19.38;;;9.73;;
53411;SDS011;39307;52.870;13.660;2022-10-29T07:15:08;22.40;;;10.10;;
53411;SDS011;39307;52.870;13.660;2022-10-29T07:17:36;26.38;;;10.15;;
53411;SDS011;39307;52.870;13.660;2022-10-29T07:20:02;20.53;;;9.80;;
53411;SDS011;39307;52.870;13.660;2022-10-29T07:22:29;23.97;;;10.47;;
53411;SDS011;39307;52.870;13.660;2022-10-29T07:24:55;20.60;;;10.45;;
53411;SDS011;39307;52.870;13.660;2022-10-29T07:27:22;22.45;;;10.27;;
53411;SDS011;39307;52.870;13.660;2022-10-29T07:29:48;23.92;;;10.18;;
53411;SDS011;39307;52.870;13.660;2022-10-29T07:32:14;22.42;;;10.07;;
53411;SDS011;39307;52.870;13.660;2022-10-29T07:34:40;24.80;;;10.82;;
53411;SDS011;39307;52.870;13.660;2022-10-29T07:37:06;19.30;;;10.48;;
53411;SDS011;39307;52.870;13.660;2022-10-29T07:39:33;22.08;;;10.38;;
53411;SDS011;39307;52.870;13.660;2022-10-29T07:41:59;23.08;;;11.15;;
53411;SDS011;39307;52.870;13.660;2022-10-29T07:44:25;21.42;;;10.73;;
53411;SDS011;39307;52.870;13.660;2022-10-29T07:46:51;24.73;;;11.00;;
53411;SDS011;39307;52.870;13.660;2022-10-29T07:49:17;22.87;;;10.80;;
53411;SDS011;39307;52.870;13.660;2022-10-29T07:51:44;23.87;;;10.87;;
53411;SDS011;39307;52.870;13.660;2022-10-29T07:54:10;30.13;;;11.30;;
53411;SDS011;39307;52.870;13.660;2022-10-29T07:56:36;21.55;;;10.50;;
53411;SDS011;39307;52.870;13.660;2022-10-29T07:59:02;22.92;;;10.43;;
53411;SDS011;39307;52.870;13.660;2022-10-29T08:01:28;24.35;;;10.30;;
53411;SDS011;39307;52.870;13.660;2022-10-29T08:03:55;23.65;;;10.50;;
53411;SDS011;39307;52.870;13.660;2022-10-29T08:06:21;23.42;;;11.18;;
53411;SDS011;39307;52.870;13.660;2022-10-29T08:08:47;23.90;;;10.90;;
53411;SDS011;39307;52.870;13.660;2022-10-29T08:11:13;22.13;;;10.82;;
53411;SDS011;39307;52.870;13.660;2022-10-29T08:13:39;25.95;;;9.95;;
53411;SDS011;39307;52.870;13.660;2022-10-29T08:16:05;27.17;;;11.77;;
53411;SDS011;39307;52.870;13.660;2022-10-29T08:18:32;24.60;;;11.18;;
53411;SDS011;39307;52.870;13.660;2022-10-29T08:20:58;22.58;;;10.32;;
53411;SDS011;39307;52.870;13.660;2022-10-29T08:23:29;22.57;;;9.67;;
53411;SDS011;39307;52.870;13.660;2022-10-29T08:25:58;24.23;;;10.33;;
53411;SDS011;39307;52.870;13.660;2022-10-29T08:28:24;25.58;;;11.07;;
53411;SDS011;39307;52.870;13.660;2022-10-29T08:30:51;19.95;;;9.73;;
53411;SDS011;39307;52.870;13.660;2022-10-29T08:33:17;23.45;;;9.93;;
53411;SDS011;39307;52.870;13.660;2022-10-29T08:35:43;23.23;;;9.65;;
53411;SDS011;39307;52.870;13.660;2022-10-29T08:38:09;22.90;;;9.90;;
53411;SDS011;39307;52.870;13.660;2022-10-29T08:46:01;22.20;;;10.65;;
53411;SDS011;39307;52.870;13.660;2022-10-29T08:51:22;24.67;;;10.15;;
53411;SDS011;39307;52.870;13.660;2022-10-29T08:53:59;21.15;;;10.00;;
53411;SDS011;39307;52.870;13.660;2022-10-29T08:56:35;20.05;;;9.43;;
53411;SDS011;39307;52.870;13.660;2022-10-29T08:59:09;20.90;;;10.03;;
53411;SDS011;39307;52.870;13.660;2022-10-29T09:01:39;22.25;;;9.65;;
53411;SDS011;39307;52.870;13.660;2022-10-29T09:06:58;20.83;;;9.33;;
53411;SDS011;39307;52.870;13.660;2022-10-29T09:09:43;19.33;;;9.38;;
53411;SDS011;39307;52.870;13.660;2022-10-29T09:23:21;27.65;;;10.18;;
53411;SDS011;39307;52.870;13.660;2022-10-29T09:26:00;23.60;;;9.98;;
53411;SDS011;39307;52.870;13.660;2022-10-29T09:28:43;23.52;;;10.60;;
53411;SDS011;39307;52.870;13.660;2022-10-29T09:31:33;22.23;;;9.35;;
53411;SDS011;39307;52.870;13.660;2022-10-29T09:34:13;23.17;;;10.40;;
53411;SDS011;39307;52.870;13.660;2022-10-29T09:36:46;25.73;;;10.77;;
53411;SDS011;39307;52.870;13.660;2022-10-29T09:39:14;20.85;;;9.65;;
53411;SDS011;39307;52.870;13.660;2022-10-29T09:41:53;19.38;;;10.05;;
53411;SDS011;39307;52.870;13.660;2022-10-29T09:44:34;22.20;;;9.73;;
53411;SDS011;39307;52.870;13.660;2022-10-29T09:52:42;23.80;;;11.43;;
53411;SDS011;39307;52.870;13.660;2022-10-29T09:55:26;17.60;;;8.73;;
53411;SDS011;39307;52.870;13.660;2022-10-29T09:57:55;17.13;;;7.47;;
53411;SDS011;39307;52.870;13.660;2022-10-29T10:00:23;20.55;;;8.32;;
53411;SDS011;39307;52.870;13.660;2022-10-29T10:05:27;19.70;;;8.05;;
53411;SDS011;39307;52.870;13.660;2022-10-29T10:08:09;25.50;;;8.40;;
53411;SDS011;39307;52.870;13.660;2022-10-29T10:10:50;22.05;;;8.40;;
53411;SDS011;39307;52.870;13.660;2022-10-29T10:13:17;18.90;;;8.43;;
53411;SDS011;39307;52.870;13.660;2022-10-29T10:15:48;18.90;;;7.75;;
53411;SDS011;39307;52.870;13.660;2022-10-29T10:18:23;20.48;;;8.77;;
53411;SDS011;39307;52.870;13.660;2022-10-29T10:21:02;21.73;;;8.32;;
53411;SDS011;39307;52.870;13.660;2022-10-29T10:23:41;19.83;;;7.78;;
53411;SDS011;39307;52.870;13.660;2022-10-29T10:31:39;19.23;;;8.65;;
53411;SDS011;39307;52.870;13.660;2022-10-29T10:34:14;19.73;;;9.32;;
53411;SDS011;39307;52.870;13.660;2022-10-29T10:36:44;20.73;;;9.43;;
53411;SDS011;39307;52.870;13.660;2022-10-29T10:41:50;18.23;;;8.35;;
53411;SDS011;39307;52.870;13.660;2022-10-29T10:44:18;17.27;;;7.78;;
53411;SDS011;39307;52.870;13.660;2022-10-29T10:46:46;19.63;;;7.82;;
53411;SDS011;39307;52.870;13.660;2022-10-29T10:49:28;18.38;;;8.18;;
53411;SDS011;39307;52.870;13.660;2022-10-29T10:52:00;16.98;;;8.57;;
53411;SDS011;39307;52.870;13.660;2022-10-29T10:54:43;26.30;;;12.38;;
53411;SDS011;39307;52.870;13.660;2022-10-29T10:59:41;18.20;;;8.35;;
53411;SDS011;39307;52.870;13.660;2022-10-29T11:02:18;18.25;;;8.43;;
53411;SDS011;39307;52.870;13.660;2022-10-29T11:05:08;18.77;;;8.75;;
53411;SDS011;39307;52.870;13.660;2022-10-29T11:07:42;17.05;;;8.70;;
53411;SDS011;39307;52.870;13.660;2022-10-29T11:10:22;17.05;;;7.95;;
53411;SDS011;39307;52.870;13.660;2022-10-29T11:12:53;21.00;;;8.55;;
53411;SDS011;39307;52.870;13.660;2022-10-29T11:15:45;17.20;;;8.77;;
53411;SDS011;39307;52.870;13.660;2022-10-29T11:18:38;18.27;;;8.50;;
53411;SDS011;39307;52.870;13.660;2022-10-29T11:21:19;25.58;;;15.35;;
53411;SDS011;39307;52.870;13.660;2022-10-29T11:26:46;18.33;;;8.98;;
53411;SDS011;39307;52.870;13.660;2022-10-29T11:30:04;22.40;;;12.32;;
53411;SDS011;39307;52.870;13.660;2022-10-29T11:38:27;23.00;;;8.45;;
53411;SDS011;39307;52.870;13.660;2022-10-29T11:43:49;15.05;;;7.97;;
53411;SDS011;39307;52.870;13.660;2022-10-29T11:46:36;16.38;;;7.70;;
53411;SDS011;39307;52.870;13.660;2022-10-29T11:52:18;18.75;;;7.53;;
53411;SDS011;39307;52.870;13.660;2022-10-29T11:57:46;18.10;;;8.40;;
53411;SDS011;39307;52.870;13.660;2022-10-29T12:00:26;18.92;;;8.93;;
53411;SDS011;39307;52.870;13.660;2022-10-29T12:06:16;18.13;;;7.95;;
53411;SDS011;39307;52.870;13.660;2022-10-29T12:09:02;23.52;;;9.35;;
53411;SDS011;39307;52.870;13.660;2022-10-29T12:11:40;22.05;;;10.02;;
53411;SDS011;39307;52.870;13.660;2022-10-29T12:14:35;18.38;;;9.30;;
53411;SDS011;39307;52.870;13.660;2022-10-29T12:20:23;22.55;;;10.35;;
53411;SDS011;39307;52.870;13.660;2022-10-29T12:23:21;20.13;;;9.32;;
53411;SDS011;39307;52.870;13.660;2022-10-29T12:25:54;18.95;;;8.88;;
53411;SDS011;39307;52.870;13.660;2022-10-29T12:28:54;18.08;;;9.27;;
53411;SDS011;39307;52.870;13.660;2022-10-29T12:34:51;19.55;;;8.98;;
53411;SDS011;39307;52.870;13.660;2022-10-29T12:37:41;25.70;;;9.57;;
53411;SDS011;39307;52.870;13.660;2022-10-29T12:40:27;19.00;;;8.52;;
53411;SDS011;39307;52.870;13.660;2022-10-29T12:42:59;17.05;;;7.90;;
53411;SDS011;39307;52.870;13.660;2022-10-29T12:45:32;22.23;;;8.93;;
53411;SDS011;39307;52.870;13.660;2022-10-29T12:50:59;20.63;;;8.57;;
53411;SDS011;39307;52.870;13.660;2022-10-29T12:57:05;18.23;;;8.20;;
53411;SDS011;39307;52.870;13.660;2022-10-29T12:59:38;23.42;;;8.80;;
53411;SDS011;39307;52.870;13.660;2022-10-29T13:10:55;23.08;;;8.60;;
53411;SDS011;39307;52.870;13.660;2022-10-29T13:13:03;18.53;;;8.53;;
53411;SDS011;39307;52.870;13.660;2022-10-29T13:15:46;22.63;;;8.07;;
53411;SDS011;39307;52.870;13.660;2022-10-29T13:21:11;19.93;;;8.60;;
53411;SDS011;39307;52.870;13.660;2022-10-29T13:23:37;19.30;;;8.47;;
53411;SDS011;39307;52.870;13.660;2022-10-29T13:26:03;22.27;;;7.93;;
53411;SDS011;39307;52.870;13.660;2022-10-29T13:38:40;19.93;;;7.43;;
53411;SDS011;39307;52.870;13.660;2022-10-29T13:41:35;20.15;;;7.72;;
53411;SDS011;39307;52.870;13.660;2022-10-29T13:49:31;15.85;;;6.97;;
53411;SDS011;39307;52.870;13.660;2022-10-29T13:52:22;13.00;;;6.73;;
53411;SDS011;39307;52.870;13.660;2022-10-29T13:54:59;14.83;;;6.10;;
53411;SDS011;39307;52.870;13.660;2022-10-29T14:00:24;16.80;;;6.72;;
53411;SDS011;39307;52.870;13.660;2022-10-29T14:05:28;15.83;;;6.90;;
53411;SDS011;39307;52.870;13.660;2022-10-29T14:08:00;15.07;;;6.40;;
53411;SDS011;39307;52.870;13.660;2022-10-29T14:16:00;21.93;;;7.63;;
53411;SDS011;39307;52.870;13.660;2022-10-29T14:18:49;22.25;;;12.30;;
53411;SDS011;39307;52.870;13.660;2022-10-29T14:21:20;15.40;;;7.65;;
53411;SDS011;39307;52.870;13.660;2022-10-29T14:23:58;15.60;;;7.00;;
53411;SDS011;39307;52.870;13.660;2022-10-29T14:26:27;19.70;;;7.45;;
53411;SDS011;39307;52.870;13.660;2022-10-29T14:28:54;18.40;;;7.05;;
53411;SDS011;39307;52.870;13.660;2022-10-29T14:31:24;17.58;;;6.70;;
53411;SDS011;39307;52.870;13.660;2022-10-29T14:33:54;18.40;;;6.68;;
53411;SDS011;39307;52.870;13.660;2022-10-29T14:36:29;15.38;;;6.13;;
53411;SDS011;39307;52.870;13.660;2022-10-29T14:38:57;19.85;;;7.15;;
53411;SDS011;39307;52.870;13.660;2022-10-29T14:41:29;16.02;;;6.88;;
53411;SDS011;39307;52.870;13.660;2022-10-29T14:44:01;17.35;;;6.70;;
53411;SDS011;39307;52.870;13.660;2022-10-29T14:46:34;15.85;;;6.10;;
53411;SDS011;39307;52.870;13.660;2022-10-29T14:49:18;13.77;;;6.70;;
53411;SDS011;39307;52.870;13.660;2022-10-29T14:54:27;13.48;;;6.43;;
53411;SDS011;39307;52.870;13.660;2022-10-29T14:56:58;16.87;;;6.30;;
53411;SDS011;39307;52.870;13.660;2022-10-29T14:59:42;18.30;;;9.00;;
53411;SDS011;39307;52.870;13.660;2022-10-29T15:02:14;27.30;;;11.75;;
53411;SDS011;39307;52.870;13.660;2022-10-29T15:04:47;29.08;;;11.80;;
53411;SDS011;39307;52.870;13.660;2022-10-29T15:09:44;15.27;;;6.43;;
53411;SDS011;39307;52.870;13.660;2022-10-29T15:12:21;16.30;;;6.68;;
53411;SDS011;39307;52.870;13.660;2022-10-29T15:14:51;15.90;;;6.15;;
53411;SDS011;39307;52.870;13.660;2022-10-29T15:19:52;18.98;;;7.00;;
53411;SDS011;39307;52.870;13.660;2022-10-29T15:22:24;19.17;;;6.60;;
53411;SDS011;39307;52.870;13.660;2022-10-29T15:25:03;14.90;;;6.75;;
53411;SDS011;39307;52.870;13.660;2022-10-29T15:27:36;17.67;;;6.72;;
53411;SDS011;39307;52.870;13.660;2022-10-29T15:30:03;17.67;;;6.60;;
53411;SDS011;39307;52.870;13.660;2022-10-29T15:32:31;18.13;;;6.97;;
53411;SDS011;39307;52.870;13.660;2022-10-29T15:34:57;17.00;;;7.00;;
53411;SDS011;39307;52.870;13.660;2022-10-29T15:37:25;16.13;;;6.47;;
53411;SDS011;39307;52.870;13.660;2022-10-29T15:40:10;21.85;;;6.60;;
53411;SDS011;39307;52.870;13.660;2022-10-29T15:42:38;18.02;;;6.85;;
53411;SDS011;39307;52.870;13.660;2022-10-29T15:47:38;16.00;;;7.22;;
53411;SDS011;39307;52.870;13.660;2022-10-29T15:50:09;18.65;;;6.90;;
53411;SDS011;39307;52.870;13.660;2022-10-29T15:52:40;16.67;;;7.63;;
53411;SDS011;39307;52.870;13.660;2022-10-29T15:55:18;20.75;;;7.32;;
53411;SDS011;39307;52.870;13.660;2022-10-29T15:57:47;17.47;;;6.73;;
53411;SDS011;39307;52.870;13.660;2022-10-29T16:00:14;19.75;;;7.13;;
53411;SDS011;39307;52.870;13.660;2022-10-29T16:02:40;20.50;;;7.20;;
53411;SDS011;39307;52.870;13.660;2022-10-29T16:05:10;16.80;;;7.03;;
53411;SDS011;39307;52.870;13.660;2022-10-29T16:07:38;23.60;;;7.00;;
53411;SDS011;39307;52.870;13.660;2022-10-29T16:10:05;13.15;;;6.68;;
53411;SDS011;39307;52.870;13.660;2022-10-29T16:12:37;17.27;;;7.10;;
53411;SDS011;39307;52.870;13.660;2022-10-29T16:15:04;19.50;;;7.75;;
53411;SDS011;39307;52.870;13.660;2022-10-29T16:17:30;20.87;;;10.13;;
53411;SDS011;39307;52.870;13.660;2022-10-29T16:19:56;21.40;;;9.52;;
53411;SDS011;39307;52.870;13.660;2022-10-29T16:22:25;14.93;;;7.82;;
53411;SDS011;39307;52.870;13.660;2022-10-29T16:24:54;17.23;;;8.43;;
53411;SDS011;39307;52.870;13.660;2022-10-29T16:27:20;16.95;;;8.70;;
53411;SDS011;39307;52.870;13.660;2022-10-29T16:29:47;15.90;;;7.32;;
53411;SDS011;39307;52.870;13.660;2022-10-29T16:32:13;16.25;;;7.40;;
53411;SDS011;39307;52.870;13.660;2022-10-29T16:34:41;16.73;;;6.90;;
53411;SDS011;39307;52.870;13.660;2022-10-29T16:37:11;16.60;;;7.10;;
53411;SDS011;39307;52.870;13.660;2022-10-29T16:39:39;16.88;;;7.00;;
53411;SDS011;39307;52.870;13.660;2022-10-29T16:42:05;13.00;;;6.90;;
53411;SDS011;39307;52.870;13.660;2022-10-29T16:44:32;14.63;;;6.68;;
53411;SDS011;39307;52.870;13.660;2022-10-29T16:46:58;14.80;;;6.20;;
53411;SDS011;39307;52.870;13.660;2022-10-29T16:49:24;16.25;;;6.47;;
53411;SDS011;39307;52.870;13.660;2022-10-29T16:51:50;17.52;;;6.20;;
53411;SDS011;39307;52.870;13.660;2022-10-29T16:54:17;14.98;;;6.82;;
53411;SDS011;39307;52.870;13.660;2022-10-29T16:56:43;14.48;;;6.15;;
53411;SDS011;39307;52.870;13.660;2022-10-29T16:59:09;16.02;;;7.30;;
53411;SDS011;39307;52.870;13.660;2022-10-29T17:01:36;19.90;;;7.65;;
53411;SDS011;39307;52.870;13.660;2022-10-29T17:04:02;17.77;;;7.93;;
53411;SDS011;39307;52.870;13.660;2022-10-29T17:06:28;15.65;;;7.90;;